Bakerville, South Dakota
Current Conditions -  °F | °C
As of 4:53 AM on Wednesday 28 Jan 2015 (Local Time) from KCUT Reporting Station
Clear Clear  
Wind Chill: 35°   Ceiling: Unl
Heat Index: 40°   Visibility: 10mi
Dew Point: 27°   Wind: 7mph
Humidity: 60%   Direction: 230°SW
Pressure: 29.88"   Gusts: NA
Location:  43.6653°N, 103.766°W
Report Text: KCUT 281153Z AUTO 23006KT 10SM CLR 04/M03 A2988 RMK AO2 SLP091 T00441028 10083 20028 53003
Loading
Personal Weather Stations






























Interactive Weather Map New forecast layout! Learn more

10-Day Weather Forecast

Advertisements
Track Severe Weather on mobile